createdAt,value
2023-06-15T00:00:59.218Z,100400.09
2023-06-15T00:04:03.849Z,100404.81
2023-06-15T00:07:07.221Z,100399.00
2023-06-15T00:10:11.585Z,100404.91
2023-06-15T00:13:16.231Z,100403.63
2023-06-15T00:16:19.969Z,100385.34
2023-06-15T00:19:23.232Z,100404.88
2023-06-15T00:22:27.613Z,100412.03
2023-06-15T00:25:31.764Z,100407.00
2023-06-15T00:28:35.227Z,100405.34
2023-06-15T00:31:38.291Z,100397.63
2023-06-15T00:34:41.764Z,100406.69
2023-06-15T00:37:44.990Z,100407.72
2023-06-15T00:40:49.596Z,100402.53
2023-06-15T00:43:54.165Z,100405.34
2023-06-15T00:47:00.864Z,100406.19
2023-06-15T00:50:04.183Z,100408.12
2023-06-15T00:53:07.987Z,100409.25
2023-06-15T00:56:12.327Z,100416.63
2023-06-15T00:59:15.775Z,100397.84
2023-06-15T01:02:19.362Z,100404.62
2023-06-15T01:05:25.886Z,100406.19
2023-06-15T01:08:30.366Z,100409.16
2023-06-15T01:11:34.677Z,100402.13
2023-06-15T01:14:37.884Z,100399.63
2023-06-15T01:17:47.670Z,100397.19
2023-06-15T01:20:55.216Z,100382.56
2023-06-15T01:24:21.821Z,100397.09
2023-06-15T01:27:25.995Z,100394.94
2023-06-15T01:30:34.557Z,100390.06
2023-06-15T01:33:51.958Z,100401.66
2023-06-15T01:36:56.403Z,100397.13
2023-06-15T01:40:02.702Z,100400.69
2023-06-15T01:43:12.907Z,100411.34
2023-06-15T01:46:16.476Z,100406.28
2023-06-15T01:49:20.901Z,100411.28
2023-06-15T01:52:24.809Z,100405.09
2023-06-15T01:55:28.265Z,100403.78
2023-06-15T01:58:31.442Z,100399.34
2023-06-15T02:01:34.924Z,100406.66
2023-06-15T02:04:38.918Z,100406.84
2023-06-15T02:07:42.075Z,100402.31
2023-06-15T02:10:45.514Z,100387.41
2023-06-15T02:13:50.727Z,100399.87
2023-06-15T02:16:54.076Z,100393.00
2023-06-15T02:19:57.758Z,100393.28
2023-06-15T02:23:01.281Z,100400.13
2023-06-15T02:26:07.288Z,100396.91
2023-06-15T02:29:11.254Z,100398.62
2023-06-15T02:32:33.266Z,100414.66
2023-06-15T02:35:36.971Z,100400.22
2023-06-15T02:38:40.021Z,100411.88
2023-06-15T02:41:43.439Z,100409.78
2023-06-15T02:44:47.598Z,100415.84
2023-06-15T02:47:51.247Z,100410.00
2023-06-15T02:50:54.528Z,100408.84
2023-06-15T02:53:58.017Z,100412.16
2023-06-15T02:57:02.431Z,100409.44
2023-06-15T03:00:10.336Z,100398.22
2023-06-15T03:03:14.831Z,100415.91
2023-06-15T03:06:20.185Z,100407.47
2023-06-15T03:09:24.324Z,100415.25
2023-06-15T03:12:27.640Z,100423.06
2023-06-15T03:15:31.505Z,100417.31
2023-06-15T03:18:35.071Z,100407.56
2023-06-15T03:21:39.251Z,100415.28
2023-06-15T03:24:45.800Z,100412.00
2023-06-15T03:27:50.287Z,100413.03
2023-06-15T03:30:54.715Z,100428.13
2023-06-15T03:33:59.500Z,100411.22
2023-06-15T03:37:04.519Z,100422.34
2023-06-15T03:40:10.117Z,100425.47
2023-06-15T03:43:15.774Z,100415.19
2023-06-15T03:46:19.658Z,100425.19
2023-06-15T03:49:23.633Z,100430.53
2023-06-15T03:52:27.264Z,100426.16
2023-06-15T03:55:31.264Z,100422.03
2023-06-15T03:58:34.422Z,100423.06
2023-06-15T04:01:38.771Z,100426.87
2023-06-15T04:04:42.208Z,100424.22
2023-06-15T04:07:47.293Z,100427.41
2023-06-15T04:10:50.808Z,100428.31
2023-06-15T04:13:53.978Z,100429.25
2023-06-15T04:16:58.496Z,100427.50
2023-06-15T04:20:02.471Z,100430.37
2023-06-15T04:23:07.381Z,100427.34
2023-06-15T04:26:11.206Z,100430.22
2023-06-15T04:29:15.774Z,100425.00
2023-06-15T04:32:18.963Z,100409.75
2023-06-15T04:35:22.540Z,100428.72
2023-06-15T04:38:26.805Z,100424.19
2023-06-15T04:41:31.793Z,100419.38
2023-06-15T04:44:35.173Z,100425.81
2023-06-15T04:47:40.866Z,100432.91
2023-06-15T04:50:49.366Z,100432.28
2023-06-15T04:53:57.465Z,100433.63
2023-06-15T04:57:00.482Z,100433.22
2023-06-15T05:00:11.178Z,100440.13
2023-06-15T05:03:15.093Z,100439.56
2023-06-15T05:06:19.130Z,100438.28
2023-06-15T05:09:22.965Z,100441.38
2023-06-15T05:12:28.036Z,100444.94
2023-06-15T05:15:31.789Z,100450.37
2023-06-15T05:18:39.827Z,100428.34
2023-06-15T05:21:42.938Z,100449.06
2023-06-15T05:24:47.174Z,100452.88
2023-06-15T05:27:50.872Z,100463.19
2023-06-15T05:30:54.404Z,100459.44
2023-06-15T05:33:57.440Z,100463.84
2023-06-15T05:37:01.073Z,100468.53
2023-06-15T05:40:06.259Z,100467.66
2023-06-15T05:43:10.296Z,100464.81
2023-06-15T05:46:13.466Z,100459.59
2023-06-15T05:49:16.907Z,100455.81
2023-06-15T05:52:20.802Z,100455.75
2023-06-15T05:55:26.205Z,100461.78
2023-06-15T05:58:29.718Z,100459.78
2023-06-15T06:01:33.263Z,100469.62
2023-06-15T06:04:37.356Z,100455.88
2023-06-15T06:07:40.494Z,100468.59
2023-06-15T06:10:44.612Z,100464.91
2023-06-15T06:13:50.359Z,100465.72
2023-06-15T06:16:55.586Z,100465.09
2023-06-15T06:19:58.685Z,100455.34
2023-06-15T06:23:04.609Z,100468.44
2023-06-15T06:26:08.366Z,100462.81
2023-06-15T06:29:12.564Z,100464.53
2023-06-15T06:32:15.936Z,100471.94
2023-06-15T06:35:19.880Z,100464.56
2023-06-15T06:38:23.081Z,100465.56
2023-06-15T06:41:27.210Z,100467.47
2023-06-15T06:44:30.268Z,100465.69
2023-06-15T06:47:33.648Z,100464.59
2023-06-15T06:50:36.818Z,100466.22
2023-06-15T06:53:40.245Z,100459.06
2023-06-15T06:56:43.430Z,100460.03
2023-06-15T06:59:46.672Z,100459.28
2023-06-15T07:02:49.759Z,100454.37
2023-06-15T07:05:54.581Z,100461.59
2023-06-15T07:08:57.643Z,100463.63
2023-06-15T07:12:02.069Z,100457.37
2023-06-15T07:15:05.988Z,100453.50
2023-06-15T07:18:09.770Z,100458.59
2023-06-15T07:21:13.030Z,100451.09
2023-06-15T07:24:17.018Z,100444.44
2023-06-15T07:27:20.230Z,100440.59
2023-06-15T07:30:23.899Z,100445.34
2023-06-15T07:33:26.939Z,100441.25
2023-06-15T07:36:30.261Z,100445.88
2023-06-15T07:39:33.742Z,100441.91
2023-06-15T07:42:37.146Z,100438.94
2023-06-15T07:45:40.304Z,100420.22
2023-06-15T07:48:43.702Z,100435.00
2023-06-15T07:52:10.532Z,100433.91
2023-06-15T07:55:17.385Z,100433.47
2023-06-15T07:58:20.703Z,100432.69
2023-06-15T08:01:24.267Z,100432.63
2023-06-15T08:04:27.867Z,100427.56
2023-06-15T08:07:31.883Z,100421.75
2023-06-15T08:10:35.404Z,100421.81
2023-06-15T08:13:42.977Z,100426.91
2023-06-15T08:16:46.585Z,100424.31
2023-06-15T08:19:49.686Z,100421.72
2023-06-15T08:22:53.211Z,100424.66
2023-06-15T08:25:56.324Z,100413.22
2023-06-15T08:29:06.821Z,100404.75
2023-06-15T08:32:22.842Z,100409.22
2023-06-15T08:35:26.352Z,100410.22
2023-06-15T08:38:29.446Z,100408.81
2023-06-15T08:41:34.182Z,100394.84
2023-06-15T08:44:38.276Z,100409.16
2023-06-15T08:47:42.262Z,100411.94
2023-06-15T08:50:47.168Z,100406.03
2023-06-15T08:53:53.773Z,100406.13
2023-06-15T08:56:57.132Z,100411.69
2023-06-15T09:00:00.912Z,100410.56
2023-06-15T09:03:07.823Z,100411.44
2023-06-15T09:06:11.555Z,100414.09
2023-06-15T09:09:14.845Z,100414.25
2023-06-15T09:12:21.263Z,100403.16
2023-06-15T09:15:26.948Z,100408.56
2023-06-15T09:18:30.600Z,100399.06
2023-06-15T09:21:33.656Z,100399.31
2023-06-15T09:24:41.246Z,100397.00
2023-06-15T09:27:55.483Z,100394.28
2023-06-15T09:31:00.697Z,100396.91
2023-06-15T09:34:06.243Z,100392.25
2023-06-15T09:37:17.512Z,100391.50
2023-06-15T09:40:21.319Z,100383.31
2023-06-15T09:43:24.964Z,100378.22
2023-06-15T09:46:31.518Z,100377.94
2023-06-15T09:49:34.912Z,100377.59
2023-06-15T09:52:43.503Z,100373.72
2023-06-15T09:55:47.692Z,100372.81
2023-06-15T09:58:51.084Z,100369.72
2023-06-15T10:01:57.187Z,100378.19
2023-06-15T10:05:01.954Z,100363.81
2023-06-15T10:08:06.678Z,100362.22
2023-06-15T10:11:11.266Z,100367.78
2023-06-15T10:14:24.777Z,100371.31
2023-06-15T10:17:36.012Z,100359.22
2023-06-15T10:20:39.350Z,100378.00
2023-06-15T10:23:44.496Z,100381.91
2023-06-15T10:26:47.800Z,100371.94
2023-06-15T10:30:12.818Z,100373.69
2023-06-15T10:33:34.837Z,100368.28
2023-06-15T10:36:48.605Z,100364.88
2023-06-15T10:39:53.930Z,100361.53
2023-06-15T10:42:59.435Z,100353.78
2023-06-15T10:46:03.777Z,100350.47
2023-06-15T10:49:10.878Z,100362.75
2023-06-15T10:52:14.805Z,100351.41
2023-06-15T10:55:23.818Z,100352.44
2023-06-15T10:58:29.433Z,100343.47
2023-06-15T11:01:33.916Z,100346.91
2023-06-15T11:04:37.177Z,100340.75
2023-06-15T11:07:47.500Z,100333.84
2023-06-15T11:10:51.206Z,100327.56
2023-06-15T11:14:06.325Z,100329.16
2023-06-15T11:17:10.281Z,100332.75
2023-06-15T11:20:48.430Z,100331.81
2023-06-15T11:23:57.610Z,100334.09
2023-06-15T11:27:11.343Z,100338.03
2023-06-15T11:30:15.926Z,100347.72
2023-06-15T11:33:28.416Z,100342.91
2023-06-15T11:36:32.863Z,100336.78
2023-06-15T11:39:36.752Z,100335.00
2023-06-15T11:42:39.927Z,100327.94
2023-06-15T11:45:47.825Z,100333.50
2023-06-15T11:48:56.810Z,100345.56
2023-06-15T11:52:01.218Z,100334.25
2023-06-15T11:55:12.007Z,100335.03
2023-06-15T11:58:16.505Z,100336.72
2023-06-15T12:01:20.046Z,100335.50
2023-06-15T12:04:24.132Z,100329.75
2023-06-15T12:07:36.440Z,100325.91
2023-06-15T12:10:43.894Z,100318.03
2023-06-15T12:13:46.955Z,100324.19
2023-06-15T12:16:52.516Z,100315.66
2023-06-15T12:20:00.902Z,100310.94
2023-06-15T12:23:06.193Z,100307.44
2023-06-15T12:26:09.339Z,100298.09
2023-06-15T12:29:16.105Z,100294.06
2023-06-15T12:32:25.843Z,100297.25
2023-06-15T12:35:39.614Z,100286.59
2023-06-15T12:38:44.397Z,100284.66
2023-06-15T12:41:47.925Z,100284.81
2023-06-15T12:44:50.995Z,100280.28
2023-06-15T12:47:54.996Z,100279.62
2023-06-15T12:50:59.660Z,100270.75
2023-06-15T12:54:07.029Z,100269.03
2023-06-15T12:57:10.156Z,100278.47
2023-06-15T13:00:14.625Z,100270.09
2023-06-15T13:03:18.007Z,100257.78
2023-06-15T13:06:21.874Z,100257.56
2023-06-15T13:09:26.067Z,100256.41
2023-06-15T13:12:29.567Z,100259.38
2023-06-15T13:15:33.426Z,100261.47
2023-06-15T13:18:36.966Z,100261.06
2023-06-15T13:21:40.132Z,100258.16
2023-06-15T13:24:43.533Z,100252.91
2023-06-15T13:27:46.965Z,100255.34
2023-06-15T13:30:51.418Z,100229.28
2023-06-15T13:33:54.575Z,100237.69
2023-06-15T13:36:58.040Z,100232.25
2023-06-15T13:40:02.302Z,100237.09
2023-06-15T13:43:06.937Z,100247.03
2023-06-15T13:46:10.197Z,100235.84
2023-06-15T13:49:13.614Z,100229.81
2023-06-15T13:52:17.592Z,100234.16
2023-06-15T13:55:21.066Z,100227.03
2023-06-15T13:58:25.553Z,100231.38
2023-06-15T14:01:32.301Z,100230.25
2023-06-15T14:04:36.864Z,100221.38
2023-06-15T14:07:40.423Z,100215.00
2023-06-15T14:10:43.953Z,100217.25
2023-06-15T14:13:53.166Z,100220.59
2023-06-15T14:16:56.814Z,100218.03
2023-06-15T14:20:00.560Z,100216.56
2023-06-15T14:23:04.100Z,100205.88
2023-06-15T14:26:07.208Z,100201.81
2023-06-15T14:29:16.305Z,100207.59
2023-06-15T14:32:19.882Z,100210.31
2023-06-15T14:35:23.464Z,100212.75
2023-06-15T14:38:26.483Z,100211.59
2023-06-15T14:41:30.122Z,100216.63
2023-06-15T14:44:33.367Z,100215.19
2023-06-15T14:47:37.960Z,100208.16
2023-06-15T14:50:42.326Z,100211.34
2023-06-15T14:53:47.049Z,100210.69
2023-06-15T14:56:50.622Z,100206.41
2023-06-15T14:59:54.027Z,100213.41
2023-06-15T15:02:57.315Z,100210.25
2023-06-15T15:06:00.850Z,100208.31
2023-06-15T15:09:04.123Z,100206.63
2023-06-15T15:12:09.401Z,100204.06
2023-06-15T15:15:12.649Z,100199.28
2023-06-15T15:18:16.789Z,100200.53
2023-06-15T15:21:20.131Z,100193.56
2023-06-15T15:24:23.668Z,100190.84
2023-06-15T15:27:27.052Z,100185.19
2023-06-15T15:30:30.455Z,100195.12
2023-06-15T15:33:33.625Z,100196.06
2023-06-15T15:36:37.262Z,100187.66
2023-06-15T15:39:40.679Z,100189.66
2023-06-15T15:42:44.065Z,100196.16
2023-06-15T15:45:47.220Z,100199.97
2023-06-15T15:48:50.722Z,100193.19
2023-06-15T15:51:53.981Z,100198.41
2023-06-15T15:54:57.575Z,100199.47
2023-06-15T15:58:00.831Z,100157.41
2023-06-15T16:01:04.716Z,100196.50
2023-06-15T16:04:08.178Z,100182.47
2023-06-15T16:07:11.494Z,100197.44
2023-06-15T16:10:15.486Z,100197.34
2023-06-15T16:13:18.865Z,100188.84
2023-06-15T16:16:28.612Z,100185.78
2023-06-15T16:19:32.515Z,100189.87
2023-06-15T16:22:36.370Z,100191.12
2023-06-15T16:25:39.572Z,100188.06
2023-06-15T16:28:43.038Z,100187.09
2023-06-15T16:31:46.180Z,100188.00
2023-06-15T16:34:49.610Z,100188.19
2023-06-15T16:37:52.776Z,100193.25
2023-06-15T16:40:56.811Z,100177.97
2023-06-15T16:44:00.088Z,100190.19
2023-06-15T16:47:04.602Z,100189.69
2023-06-15T16:50:07.956Z,100191.47
2023-06-15T16:53:13.729Z,100193.69
2023-06-15T16:56:17.184Z,100190.53
2023-06-15T16:59:20.810Z,100190.38
2023-06-15T17:02:23.951Z,100192.47
2023-06-15T17:05:27.500Z,100192.34
2023-06-15T17:08:30.578Z,100185.84
2023-06-15T17:11:34.210Z,100192.44
2023-06-15T17:14:38.944Z,100196.97
2023-06-15T17:17:43.229Z,100206.87
2023-06-15T17:20:46.379Z,100196.75
2023-06-15T17:23:51.066Z,100206.03
2023-06-15T17:26:54.332Z,100202.47
2023-06-15T17:29:57.818Z,100199.38
2023-06-15T17:33:00.964Z,100202.84
2023-06-15T17:36:04.541Z,100202.03
2023-06-15T17:39:07.686Z,100207.72
2023-06-15T17:42:13.202Z,100192.78
2023-06-15T17:45:16.365Z,100194.16
2023-06-15T17:48:21.869Z,100193.66
2023-06-15T17:51:25.210Z,100191.03
2023-06-15T17:54:28.676Z,100198.97
2023-06-15T17:57:32.365Z,100201.06
2023-06-15T18:00:36.687Z,100195.72
2023-06-15T18:03:41.132Z,100198.81
2023-06-15T18:06:45.478Z,100205.53
2023-06-15T18:09:48.782Z,100189.84
2023-06-15T18:12:51.841Z,100201.53
2023-06-15T18:15:57.672Z,100201.97
2023-06-15T18:19:00.747Z,100201.41
2023-06-15T18:22:04.538Z,100210.31
2023-06-15T18:25:08.178Z,100202.69
2023-06-15T18:28:11.569Z,100203.50
2023-06-15T18:31:14.626Z,100208.75
2023-06-15T18:34:18.331Z,100213.41
2023-06-15T18:37:22.731Z,100211.41
2023-06-15T18:40:28.123Z,100201.66
2023-06-15T18:43:31.438Z,100197.06
2023-06-15T18:46:37.775Z,100215.34
2023-06-15T18:49:41.884Z,100199.03
2023-06-15T18:52:46.745Z,100208.00
2023-06-15T18:55:51.286Z,100202.91
2023-06-15T18:58:56.245Z,100204.62
2023-06-15T19:02:02.171Z,100216.19
2023-06-15T19:05:06.973Z,100220.63
2023-06-15T19:08:12.306Z,100211.66
2023-06-15T19:11:17.390Z,100216.31
2023-06-15T19:14:21.286Z,100225.84
2023-06-15T19:17:27.705Z,100235.41
2023-06-15T19:20:31.830Z,100227.94
2023-06-15T19:23:36.669Z,100249.12
2023-06-15T19:26:40.875Z,100253.03
2023-06-15T19:29:45.810Z,100247.00
2023-06-15T19:32:50.591Z,100253.91
2023-06-15T19:35:54.956Z,100248.16
2023-06-15T19:39:02.860Z,100256.06
2023-06-15T19:42:07.593Z,100245.97
2023-06-15T19:45:12.364Z,100258.16
2023-06-15T19:48:16.753Z,100263.34
2023-06-15T19:51:20.884Z,100266.78
2023-06-15T19:54:24.711Z,100266.19
2023-06-15T19:57:27.839Z,100258.69
2023-06-15T20:00:32.457Z,100260.69
2023-06-15T20:03:37.317Z,100254.25
2023-06-15T20:06:40.972Z,100258.97
2023-06-15T20:09:44.328Z,100254.09
2023-06-15T20:12:48.109Z,100249.59
2023-06-15T20:15:52.921Z,100252.88
2023-06-15T20:18:57.621Z,100250.84
2023-06-15T20:22:01.410Z,100252.53
2023-06-15T20:25:05.364Z,100251.38
2023-06-15T20:28:08.647Z,100246.44
2023-06-15T20:31:12.190Z,100246.84
2023-06-15T20:34:16.508Z,100240.34
2023-06-15T20:37:20.359Z,100239.50
2023-06-15T20:40:26.147Z,100226.78
2023-06-15T20:43:29.677Z,100233.34
2023-06-15T20:46:34.336Z,100223.25
2023-06-15T20:49:37.745Z,100235.62
2023-06-15T20:52:43.219Z,100234.19
2023-06-15T20:55:46.927Z,100236.44
2023-06-15T20:58:53.949Z,100231.38
2023-06-15T21:01:57.404Z,100230.06
2023-06-15T21:05:10.310Z,100236.03
2023-06-15T21:08:13.767Z,100231.41
2023-06-15T21:11:19.693Z,100231.59
2023-06-15T21:14:23.214Z,100232.59
2023-06-15T21:17:29.121Z,100220.69
2023-06-15T21:20:32.622Z,100221.72
2023-06-15T21:23:38.476Z,100222.88
2023-06-15T21:26:43.688Z,100227.16
2023-06-15T21:29:47.575Z,100186.91
2023-06-15T21:32:53.237Z,100221.88
2023-06-15T21:35:57.347Z,100213.19
2023-06-15T21:39:00.716Z,100223.81
2023-06-15T21:42:07.136Z,100224.09
2023-06-15T21:45:11.025Z,100218.88
2023-06-15T21:48:15.010Z,100223.84
2023-06-15T21:51:18.566Z,100158.91
2023-06-15T21:54:22.224Z,100207.09
2023-06-15T21:57:27.128Z,100200.56
2023-06-15T22:00:30.798Z,100199.75
2023-06-15T22:03:34.486Z,100219.41
2023-06-15T22:06:39.677Z,100215.62
2023-06-15T22:09:43.721Z,100215.59
2023-06-15T22:12:48.470Z,100213.41
2023-06-15T22:15:51.847Z,100213.69
2023-06-15T22:18:55.411Z,100224.19
2023-06-15T22:21:58.942Z,100213.19
2023-06-15T22:25:02.170Z,100206.16
2023-06-15T22:28:05.527Z,100217.19
2023-06-15T22:31:08.877Z,100217.41
2023-06-15T22:34:12.241Z,100211.47
2023-06-15T22:37:16.623Z,100211.00
2023-06-15T22:40:20.513Z,100210.50
2023-06-15T22:43:27.028Z,100203.59
2023-06-15T22:46:30.583Z,100201.12
2023-06-15T22:49:35.620Z,100200.75
2023-06-15T22:52:42.684Z,100200.13
2023-06-15T22:55:46.269Z,100195.94
2023-06-15T22:58:49.762Z,100195.19
2023-06-15T23:01:54.439Z,100189.87
2023-06-15T23:04:57.925Z,100183.56
2023-06-15T23:08:01.444Z,100184.31
2023-06-15T23:11:05.055Z,100188.53
2023-06-15T23:14:09.724Z,100183.81
2023-06-15T23:17:13.124Z,100181.34
2023-06-15T23:20:19.166Z,100188.03
2023-06-15T23:23:26.401Z,100180.84
2023-06-15T23:26:31.077Z,100184.28
2023-06-15T23:29:36.535Z,100176.13
2023-06-15T23:32:39.927Z,100175.13
2023-06-15T23:35:43.614Z,100168.97
2023-06-15T23:38:46.689Z,100156.34
2023-06-15T23:41:50.082Z,100158.94
2023-06-15T23:45:03.629Z,100152.16
2023-06-15T23:48:07.775Z,100149.44
2023-06-15T23:51:11.313Z,100153.38
2023-06-15T23:54:14.723Z,100156.72
2023-06-15T23:57:18.136Z,100149.56
